»·PEaware :: N151PT PASM-PAUN

N151PT :: PASM-PAUN

FLIGHT INFORMATION

Flight Status: Arrived
Operator: Privately registered:
United States
More flights under this callsign
Pilot: Nick R. (15066)
Aircraft: Unknown
(EA55)
More flights by this aircraft type
Origin: PASM St Mary's
United States
Destination: PAUN Unalakleet
United States
More flights between these airports :: More routes between these airports
Route: JOHNI V506 GOYWI V488 HERLA
File this flight plan on PilotEdge
Remarks:
Altitude:
(Current/Filed)
15,000ft
Speed:
(Current/Filed)
220kts
Departed: 19-Apr-17 08:33 PM
Arrived: 19-Apr-17 09:16 PM
Distance/Time
Traveled:
129nm/0:43
Distance/Time
To Go:
Arrived

Flight Plot

Page will automatically refresh every two minutes.

Flight plan parsing failed; only flown route is shown


Map Options




Map Legend


Flown Route
Filed Route
Departure Airport
Arrival Airport
Navaid (VOR, NDB)
Fix

Horizontal Profiles

Position Reports

Time Latitude Longitude Heading Altitude Ground
Speed
19-Apr-17 20:31 62.057349 -163.297573 179 314ft 10kts
19-Apr-17 20:32 62.054467 -163.299661 230 314ft 13kts
19-Apr-17 20:33 62.055122 -163.301291 4 314ft 27kts
19-Apr-17 20:34 62.081562 -163.299803 5 1785ft 128kts
19-Apr-17 20:35 62.128901 -163.300482 9 4077ft 209kts
19-Apr-17 20:36 62.190653 -163.291403 7 6950ft 231kts
19-Apr-17 20:37 62.254539 -163.284143 7 9953ft 230kts
19-Apr-17 20:38 62.316301 -163.277911 7 12938ft 218kts
19-Apr-17 20:39 62.375619 -163.272007 7 14997ft 240kts
19-Apr-17 20:40 62.450862 -163.265065 2 14996ft 288kts
19-Apr-17 20:41 62.525746 -163.323834 341 15000ft 283kts
19-Apr-17 20:42 62.597963 -163.388787 341 15000ft 279kts
19-Apr-17 20:43 62.669567 -163.454501 340 15001ft 283kts
19-Apr-17 20:44 62.738385 -163.440346 43 15003ft 266kts
19-Apr-17 20:45 62.793296 -163.332793 47 15001ft 266kts
19-Apr-17 20:46 62.845734 -163.218873 49 15000ft 266kts
19-Apr-17 20:47 62.897247 -163.102711 49 15002ft 267kts
19-Apr-17 20:48 62.948679 -162.984824 49 15024ft 269kts
19-Apr-17 20:49 63.000448 -162.865138 49 15059ft 270kts
19-Apr-17 20:50 63.052239 -162.744605 49 15073ft 272kts
19-Apr-17 20:51 63.103759 -162.623966 49 15072ft 272kts
19-Apr-17 20:52 63.155244 -162.502751 49 15071ft 272kts
19-Apr-17 20:53 63.206891 -162.380448 49 15071ft 272kts
19-Apr-17 20:54 63.257966 -162.258817 50 15072ft 272kts
19-Apr-17 20:55 63.303814 -162.149375 51 15066ft 202kts
19-Apr-17 20:56 63.338013 -162.067220 52 14679ft 175kts
19-Apr-17 20:57 63.371390 -161.986541 52 13479ft 179kts
19-Apr-17 20:58 63.405004 -161.904942 52 12279ft 179kts
19-Apr-17 20:59 63.438645 -161.823196 51 11078ft 178kts
19-Apr-17 21:00 63.471911 -161.742019 51 9873ft 176kts
19-Apr-17 21:01 63.504295 -161.662196 52 8673ft 172kts
19-Apr-17 21:02 63.536254 -161.583572 47 7466ft 170kts
19-Apr-17 21:03 63.569363 -161.509896 47 6264ft 167kts
19-Apr-17 21:04 63.601842 -161.436907 47 5057ft 164kts
19-Apr-17 21:05 63.633097 -161.366846 47 4007ft 152kts
19-Apr-17 21:06 63.658832 -161.306362 52 3989ft 131kts
19-Apr-17 21:07 63.682639 -161.248124 52 4005ft 130kts
19-Apr-17 21:08 63.710580 -161.178561 52 4000ft 164kts
19-Apr-17 21:09 63.740611 -161.097580 55 3996ft 167kts
19-Apr-17 21:10 63.772454 -161.026094 12 4000ft 175kts
19-Apr-17 21:11 63.819470 -161.019892 11 3372ft 167kts
19-Apr-17 21:12 63.863897 -161.004912 34 1889ft 152kts
19-Apr-17 21:13 63.894098 -160.967231 34 1510ft 90kts
19-Apr-17 21:14 63.897257 -160.921363 107 1059ft 92kts
19-Apr-17 21:15 63.887303 -160.869451 93 795ft 90kts
19-Apr-17 21:16 63.884326 -160.815707 92 259ft 86kts
19-Apr-17 21:17 63.882904 -160.790895 283 71ft 19kts
19-Apr-17 21:19 63.881467 -160.797558 205 71ft 10kts
19-Apr-17 21:20 63.881535 -160.797830 59 71ft 0kts
19-Apr-17 21:21 63.881535 -160.797830 59 71ft 0kts
19-Apr-17 21:22 63.881535 -160.797831 59 71ft 0kts

Navigation Log

Ident Type
Flight plan parsing failed, navigation log unavailable